createdAt,value
2018-09-13T00:00:52.065Z,13.07
2018-09-13T00:03:20.381Z,14.73
2018-09-13T00:05:48.680Z,12.07
2018-09-13T00:08:16.843Z,13.97
2018-09-13T00:10:45.019Z,12.23
2018-09-13T00:13:13.754Z,19.10
2018-09-13T00:15:41.953Z,16.87
2018-09-13T00:18:10.152Z,14.27
2018-09-13T00:20:38.631Z,11.47
2018-09-13T00:23:07.415Z,15.27
2018-09-13T00:25:35.612Z,11.90
2018-09-13T00:28:03.962Z,11.50
2018-09-13T00:30:32.173Z,14.70
2018-09-13T00:33:00.349Z,15.47
2018-09-13T00:35:28.546Z,14.10
2018-09-13T00:37:56.763Z,19.93
2018-09-13T00:40:24.968Z,17.33
2018-09-13T00:42:53.132Z,14.77
2018-09-13T00:45:21.332Z,15.07
2018-09-13T00:47:49.512Z,16.57
2018-09-13T00:50:17.724Z,13.33
2018-09-13T00:52:46.092Z,14.40
2018-09-13T00:55:14.742Z,18.10
2018-09-13T00:57:42.989Z,17.17
2018-09-13T01:00:11.274Z,15.53
2018-09-13T01:02:39.455Z,16.53
2018-09-13T01:05:07.650Z,15.00
2018-09-13T01:07:35.826Z,15.93
2018-09-13T01:10:04.138Z,14.80
2018-09-13T01:12:32.313Z,10.90
2018-09-13T01:15:00.513Z,14.37
2018-09-13T01:17:28.697Z,12.37
2018-09-13T01:19:56.918Z,13.67
2018-09-13T01:22:25.101Z,14.00
2018-09-13T01:24:54.616Z,13.67
2018-09-13T01:27:23.578Z,10.90
2018-09-13T01:29:51.777Z,11.20
2018-09-13T01:32:20.261Z,10.13
2018-09-13T01:34:48.440Z,15.20
2018-09-13T01:37:16.645Z,16.10
2018-09-13T01:39:44.820Z,15.33
2018-09-13T01:42:13.024Z,13.33
2018-09-13T01:44:41.252Z,10.77
2018-09-13T01:47:09.534Z,13.63
2018-09-13T01:49:37.736Z,16.77
2018-09-13T01:52:06.121Z,19.47
2018-09-13T01:54:34.396Z,15.40
2018-09-13T01:57:02.604Z,12.27
2018-09-13T01:59:30.818Z,13.40
2018-09-13T02:01:59.125Z,11.37
2018-09-13T02:04:27.392Z,12.83
2018-09-13T02:06:55.593Z,12.23
2018-09-13T02:09:23.764Z,17.10
2018-09-13T02:11:51.974Z,10.30
2018-09-13T02:14:20.150Z,14.87
2018-09-13T02:16:48.355Z,13.13
2018-09-13T02:19:16.553Z,12.43
2018-09-13T02:21:44.752Z,16.33
2018-09-13T02:24:12.976Z,11.37
2018-09-13T02:26:41.184Z,14.53
2018-09-13T02:29:09.376Z,18.47
2018-09-13T02:31:38.133Z,14.67
2018-09-13T02:34:06.311Z,15.50
2018-09-13T02:36:34.516Z,19.07
2018-09-13T02:39:02.712Z,18.20
2018-09-13T02:41:30.915Z,17.37
2018-09-13T02:43:59.293Z,17.87
2018-09-13T02:46:27.589Z,16.23
2018-09-13T02:48:55.783Z,18.60
2018-09-13T02:51:23.968Z,15.03
2018-09-13T02:53:52.199Z,12.57
2018-09-13T02:56:20.388Z,12.90
2018-09-13T02:58:48.575Z,12.83
2018-09-13T03:01:16.752Z,15.30
2018-09-13T03:03:44.946Z,10.83
2018-09-13T03:06:13.124Z,13.30
2018-09-13T03:08:41.326Z,11.17
2018-09-13T03:11:09.499Z,10.60
2018-09-13T03:13:37.702Z,15.20
2018-09-13T03:16:06.640Z,12.73
2018-09-13T03:18:34.841Z,14.63
2018-09-13T03:21:03.024Z,16.43
2018-09-13T03:23:31.252Z,14.93
2018-09-13T03:25:59.565Z,14.50
2018-09-13T03:28:27.994Z,15.37
2018-09-13T03:30:56.158Z,11.33
2018-09-13T03:33:24.368Z,13.03
2018-09-13T03:35:52.647Z,14.77
2018-09-13T03:38:20.857Z,12.07
2018-09-13T03:40:49.025Z,15.10
2018-09-13T03:43:17.388Z,22.03
2018-09-13T03:45:45.779Z,19.20
2018-09-13T03:48:14.005Z,24.40
2018-09-13T03:50:42.185Z,26.40
2018-09-13T03:53:10.417Z,23.90
2018-09-13T03:55:38.606Z,29.83
2018-09-13T03:58:06.938Z,24.10
2018-09-13T04:00:35.108Z,15.43
2018-09-13T04:03:03.356Z,19.50
2018-09-13T04:05:31.512Z,19.37
2018-09-13T04:07:59.708Z,32.90
2018-09-13T04:10:27.868Z,25.80
2018-09-13T04:12:56.301Z,25.37
2018-09-13T04:15:24.473Z,25.13
2018-09-13T04:17:52.949Z,24.80
2018-09-13T04:20:21.101Z,26.47
2018-09-13T04:22:49.411Z,26.57
2018-09-13T04:25:17.584Z,24.37
2018-09-13T04:27:46.009Z,24.50
2018-09-13T04:30:14.178Z,28.97
2018-09-13T04:32:42.342Z,32.43
2018-09-13T04:35:10.599Z,26.17
2018-09-13T04:37:38.760Z,28.47
2018-09-13T04:40:07.075Z,25.27
2018-09-13T04:42:35.238Z,26.10
2018-09-13T04:45:03.437Z,17.97
2018-09-13T04:47:31.645Z,18.53
2018-09-13T04:49:59.838Z,20.07
2018-09-13T04:52:28.592Z,24.23
2018-09-13T04:54:56.769Z,22.43
2018-09-13T04:57:24.959Z,14.93
2018-09-13T04:59:53.156Z,17.57
2018-09-13T05:02:21.405Z,15.47
2018-09-13T05:04:49.612Z,18.27
2018-09-13T05:07:18.012Z,18.90
2018-09-13T05:09:46.214Z,18.73
2018-09-13T05:12:14.381Z,17.37
2018-09-13T05:14:42.569Z,19.47
2018-09-13T05:17:10.740Z,22.33
2018-09-13T05:19:38.919Z,23.10
2018-09-13T05:22:07.099Z,21.13
2018-09-13T05:24:35.506Z,23.53
2018-09-13T05:27:03.664Z,24.83
2018-09-13T05:29:31.860Z,25.90
2018-09-13T05:32:00.033Z,25.07
2018-09-13T05:34:28.308Z,27.67
2018-09-13T05:36:56.513Z,21.27
2018-09-13T05:39:24.700Z,16.30
2018-09-13T05:41:52.898Z,19.17
2018-09-13T05:44:21.097Z,15.83
2018-09-13T05:46:49.374Z,19.70
2018-09-13T05:49:17.608Z,17.70
2018-09-13T05:51:45.850Z,24.73
2018-09-13T05:54:14.059Z,17.53
2018-09-13T05:56:42.364Z,18.10
2018-09-13T05:59:10.580Z,27.10
2018-09-13T06:01:38.855Z,18.53
2018-09-13T06:04:07.093Z,19.10
2018-09-13T06:06:35.264Z,24.17
2018-09-13T06:09:03.517Z,22.07
2018-09-13T06:11:31.721Z,25.50
2018-09-13T06:13:59.915Z,18.50
2018-09-13T06:16:28.092Z,12.23
2018-09-13T06:18:56.265Z,19.90
2018-09-13T06:21:24.514Z,20.53
2018-09-13T06:23:52.705Z,23.93
2018-09-13T06:26:20.954Z,19.63
2018-09-13T06:28:49.162Z,23.70
2018-09-13T06:31:17.453Z,20.43
2018-09-13T06:33:45.629Z,23.53
2018-09-13T06:36:13.841Z,27.13
2018-09-13T06:38:41.992Z,27.27
2018-09-13T06:41:10.286Z,25.37
2018-09-13T06:43:38.784Z,27.23
2018-09-13T06:46:06.969Z,25.63
2018-09-13T06:48:35.307Z,19.50
2018-09-13T06:51:03.433Z,23.73
2018-09-13T06:53:31.672Z,18.33
2018-09-13T06:55:59.851Z,21.10
2018-09-13T06:58:28.020Z,23.53
2018-09-13T07:00:56.300Z,24.83
2018-09-13T07:03:24.458Z,23.33
2018-09-13T07:05:52.687Z,18.80
2018-09-13T07:08:21.094Z,21.90
2018-09-13T07:10:49.301Z,22.13
2018-09-13T07:13:17.506Z,26.23
2018-09-13T07:15:45.798Z,24.17
2018-09-13T07:18:13.976Z,29.50
2018-09-13T07:20:42.215Z,20.30
2018-09-13T07:23:10.960Z,16.03
2018-09-13T07:25:39.301Z,19.53
2018-09-13T07:28:07.475Z,23.03
2018-09-13T07:30:35.697Z,25.73
2018-09-13T07:33:03.906Z,24.53
2018-09-13T07:35:32.172Z,29.70
2018-09-13T07:38:00.348Z,33.77
2018-09-13T07:40:28.512Z,32.50
2018-09-13T07:42:56.747Z,34.60
2018-09-13T07:45:24.873Z,39.17
2018-09-13T07:47:53.138Z,30.10
2018-09-13T07:50:21.307Z,28.80
2018-09-13T07:52:49.592Z,30.27
2018-09-13T07:55:17.860Z,29.80
2018-09-13T07:57:46.069Z,31.57
2018-09-13T08:00:14.259Z,37.47
2018-09-13T08:02:42.493Z,31.00
2018-09-13T08:05:10.782Z,27.83
2018-09-13T08:07:38.868Z,29.87
2018-09-13T08:10:07.134Z,30.60
2018-09-13T08:12:35.337Z,35.97
2018-09-13T08:15:03.563Z,28.03
2018-09-13T08:17:31.722Z,34.17
2018-09-13T08:19:59.885Z,35.83
2018-09-13T08:22:28.180Z,43.17
2018-09-13T08:24:56.360Z,39.27
2018-09-13T08:27:24.567Z,42.67
2018-09-13T08:29:52.777Z,49.67
2018-09-13T08:32:20.977Z,41.57
2018-09-13T08:34:49.242Z,50.07
2018-09-13T08:37:17.349Z,47.10
2018-09-13T08:39:45.523Z,41.70
2018-09-13T08:42:13.850Z,41.17
2018-09-13T08:44:42.063Z,43.90
2018-09-13T08:47:10.290Z,35.60
2018-09-13T08:49:38.464Z,39.67
2018-09-13T08:52:06.718Z,33.73
2018-09-13T08:54:34.893Z,32.60
2018-09-13T08:57:03.216Z,35.33
2018-09-13T08:59:31.380Z,38.17
2018-09-13T09:01:59.586Z,27.03
2018-09-13T09:04:27.765Z,25.47
2018-09-13T09:06:56.224Z,24.27
2018-09-13T09:09:24.392Z,28.93
2018-09-13T09:11:52.620Z,33.03
2018-09-13T09:14:20.749Z,28.30
2018-09-13T09:16:49.077Z,26.63
2018-09-13T09:19:17.243Z,24.07
2018-09-13T09:21:45.448Z,24.73
2018-09-13T09:24:13.650Z,24.70
2018-09-13T09:26:42.219Z,25.50
2018-09-13T09:29:10.443Z,20.00
2018-09-13T09:31:38.595Z,23.77
2018-09-13T09:34:06.965Z,20.53
2018-09-13T09:36:35.128Z,21.27
2018-09-13T09:39:04.989Z,17.87
2018-09-13T09:41:33.158Z,17.93
2018-09-13T09:44:01.596Z,15.33
2018-09-13T09:46:29.742Z,18.83
2018-09-13T09:48:57.946Z,17.57
2018-09-13T09:51:26.111Z,20.53
2018-09-13T09:53:54.342Z,17.47
2018-09-13T09:56:22.506Z,16.73
2018-09-13T09:58:50.688Z,18.93
2018-09-13T10:01:26.791Z,14.97
2018-09-13T10:03:55.892Z,15.60
2018-09-13T10:06:24.105Z,17.63
2018-09-13T10:08:52.370Z,17.03
2018-09-13T10:11:20.480Z,17.30
2018-09-13T10:13:48.688Z,19.63
2018-09-13T10:16:22.171Z,14.67
2018-09-13T10:18:54.574Z,21.37
2018-09-13T10:21:28.173Z,13.60
2018-09-13T10:24:01.798Z,16.27
2018-09-13T10:26:36.438Z,17.03
2018-09-13T10:29:10.193Z,19.00
2018-09-13T10:31:43.571Z,17.17
2018-09-13T10:34:17.168Z,19.67
2018-09-13T10:36:50.768Z,28.93
2018-09-13T10:39:24.384Z,28.57
2018-09-13T10:42:03.650Z,27.90
2018-09-13T10:44:38.928Z,28.73
2018-09-13T10:47:12.556Z,35.10
2018-09-13T10:52:22.142Z,33.27
2018-09-13T10:54:50.933Z,28.43
2018-09-13T10:57:24.560Z,28.13
2018-09-13T10:59:52.882Z,28.07
2018-09-13T11:02:21.269Z,32.53
2018-09-13T11:04:49.833Z,33.30
2018-09-13T11:07:17.990Z,39.90
2018-09-13T11:09:48.133Z,44.77
2018-09-13T11:12:16.329Z,35.30
2018-09-13T11:14:55.992Z,35.60
2018-09-13T11:17:25.125Z,37.37
2018-09-13T11:19:55.028Z,42.37
2018-09-13T11:22:23.176Z,38.73
2018-09-13T11:24:52.457Z,38.90
2018-09-13T11:27:20.833Z,29.97
2018-09-13T11:29:49.033Z,25.53
2018-09-13T11:32:17.252Z,27.97
2018-09-13T11:34:45.519Z,28.07
2018-09-13T11:37:14.028Z,25.10
2018-09-13T11:39:42.222Z,27.33
2018-09-13T11:42:10.456Z,24.43
2018-09-13T11:44:38.636Z,35.03
2018-09-13T11:47:07.214Z,31.90
2018-09-13T11:49:35.469Z,32.40
2018-09-13T11:52:03.701Z,32.93
2018-09-13T11:54:31.872Z,37.43
2018-09-13T11:57:00.186Z,33.47
2018-09-13T11:59:28.348Z,32.93
2018-09-13T12:01:56.655Z,37.33
2018-09-13T12:04:24.756Z,31.13
2018-09-13T12:06:53.381Z,35.33
2018-09-13T12:09:21.564Z,33.10
2018-09-13T12:11:49.785Z,35.30
2018-09-13T12:14:17.940Z,34.93
2018-09-13T12:16:46.944Z,30.10
2018-09-13T12:19:15.922Z,31.60
2018-09-13T12:21:47.621Z,26.60
2018-09-13T12:24:16.206Z,30.23
2018-09-13T12:26:44.378Z,37.57
2018-09-13T12:29:14.296Z,34.93
2018-09-13T12:31:42.548Z,30.87
2018-09-13T12:34:10.713Z,25.87
2018-09-13T12:36:39.688Z,34.90
2018-09-13T12:39:09.432Z,31.53
2018-09-13T12:41:37.951Z,31.90
2018-09-13T12:44:06.249Z,34.43
2018-09-13T12:46:34.586Z,34.20
2018-09-13T12:49:02.809Z,34.03
2018-09-13T12:51:31.398Z,32.57
2018-09-13T12:53:59.665Z,30.13
2018-09-13T12:56:27.876Z,33.03
2018-09-13T12:58:57.380Z,33.85
2018-09-13T13:01:25.577Z,29.83
2018-09-13T13:03:59.086Z,25.60
2018-09-13T13:06:27.326Z,28.30
2018-09-13T13:08:56.142Z,29.57
2018-09-13T13:11:24.253Z,32.20
2018-09-13T13:13:53.595Z,22.13
2018-09-13T13:16:21.849Z,25.40
2018-09-13T13:18:50.220Z,25.73
2018-09-13T13:21:18.420Z,24.47
2018-09-13T13:23:48.037Z,20.33
2018-09-13T13:26:16.202Z,22.43
2018-09-13T13:28:44.467Z,23.20
2018-09-13T13:31:12.632Z,25.47
2018-09-13T13:33:44.865Z,23.10
2018-09-13T13:36:13.138Z,25.03
2018-09-13T13:38:41.333Z,21.30
2018-09-13T13:41:09.707Z,22.50
2018-09-13T13:43:37.924Z,21.43
2018-09-13T13:46:06.136Z,24.97
2018-09-13T13:48:34.331Z,22.30
2018-09-13T13:51:02.489Z,20.97
2018-09-13T13:53:30.671Z,20.37
2018-09-13T13:55:58.844Z,20.20
2018-09-13T13:58:27.193Z,20.80
2018-09-13T14:00:55.360Z,18.40
2018-09-13T14:03:23.516Z,17.10
2018-09-13T14:05:51.709Z,15.60
2018-09-13T14:08:20.265Z,15.90
2018-09-13T14:10:48.486Z,15.83
2018-09-13T14:13:16.654Z,11.37
2018-09-13T14:15:45.697Z,12.30
2018-09-13T14:18:14.242Z,15.63
2018-09-13T14:20:42.579Z,13.83
2018-09-13T14:23:10.849Z,15.07
2018-09-13T14:25:39.283Z,12.93
2018-09-13T14:28:09.315Z,13.13
2018-09-13T14:30:40.749Z,12.97
2018-09-13T14:33:10.284Z,12.23
2018-09-13T14:35:38.622Z,12.20
2018-09-13T14:38:06.748Z,11.00
2018-09-13T14:40:35.123Z,12.97
2018-09-13T14:43:03.341Z,11.57
2018-09-13T14:45:31.603Z,11.40
2018-09-13T14:47:59.812Z,11.23
2018-09-13T14:50:28.060Z,11.37
2018-09-13T14:52:56.216Z,11.77
2018-09-13T14:55:25.369Z,9.53
2018-09-13T14:57:53.672Z,8.60
2018-09-13T15:00:22.266Z,9.90
2018-09-13T15:02:50.409Z,10.70
2018-09-13T15:05:18.855Z,9.73
2018-09-13T15:07:47.033Z,9.67
2018-09-13T15:10:15.224Z,9.07
2018-09-13T15:12:45.285Z,9.20
2018-09-13T15:15:15.388Z,10.47
2018-09-13T15:17:43.684Z,9.43
2018-09-13T15:20:12.145Z,8.73
2018-09-13T15:22:40.916Z,9.50
2018-09-13T15:25:09.088Z,9.83
2018-09-13T15:27:37.319Z,7.87
2018-09-13T15:30:05.962Z,8.80
2018-09-13T15:32:34.077Z,7.87
2018-09-13T15:35:02.257Z,8.00
2018-09-13T15:37:30.528Z,9.20
2018-09-13T15:39:58.995Z,8.37
2018-09-13T15:42:27.549Z,7.80
2018-09-13T15:44:55.755Z,9.23
2018-09-13T15:47:23.932Z,8.80
2018-09-13T15:49:52.102Z,7.77
2018-09-13T15:52:20.295Z,7.00
2018-09-13T15:54:48.471Z,7.00
2018-09-13T15:57:16.737Z,7.47
2018-09-13T15:59:46.447Z,9.33
2018-09-13T16:02:14.714Z,8.27
2018-09-13T16:04:42.898Z,9.53
2018-09-13T16:07:11.053Z,9.00
2018-09-13T16:09:39.219Z,9.23
2018-09-13T16:12:07.409Z,7.97
2018-09-13T16:14:35.568Z,7.13
2018-09-13T16:17:03.970Z,6.73
2018-09-13T16:19:32.531Z,7.17
2018-09-13T16:22:00.980Z,6.70
2018-09-13T16:24:29.342Z,7.83
2018-09-13T16:26:57.515Z,7.47
2018-09-13T16:29:25.685Z,6.93
2018-09-13T16:31:54.306Z,7.43
2018-09-13T16:34:22.522Z,5.43
2018-09-13T16:36:58.885Z,4.30
2018-09-13T16:39:32.355Z,5.57
2018-09-13T16:42:06.321Z,7.00
2018-09-13T16:44:39.988Z,6.27
2018-09-13T16:47:13.866Z,6.57
2018-09-13T16:49:42.005Z,6.70
2018-09-13T16:52:10.176Z,4.47
2018-09-13T16:54:39.573Z,3.90
2018-09-13T16:57:08.596Z,2.90
2018-09-13T16:59:37.521Z,3.60
2018-09-13T17:02:05.800Z,3.00
2018-09-13T17:04:34.278Z,3.57
2018-09-13T17:07:02.619Z,3.00
2018-09-13T17:09:30.913Z,3.70
2018-09-13T17:11:59.089Z,2.80
2018-09-13T17:14:27.264Z,2.27
2018-09-13T17:16:55.412Z,2.40
2018-09-13T17:19:23.642Z,2.60
2018-09-13T17:21:51.792Z,3.83
2018-09-13T17:24:19.996Z,2.37
2018-09-13T17:26:48.117Z,2.40
2018-09-13T17:29:16.318Z,3.53
2018-09-13T17:31:44.477Z,2.37
2018-09-13T17:34:12.665Z,2.07
2018-09-13T17:36:41.312Z,1.90
2018-09-13T17:39:10.907Z,1.80
2018-09-13T17:41:39.060Z,1.60
2018-09-13T17:44:07.857Z,1.67
2018-09-13T17:46:35.997Z,1.67
2018-09-13T17:49:04.217Z,1.50
2018-09-13T17:51:32.745Z,1.57
2018-09-13T17:54:01.144Z,1.80
2018-09-13T17:56:29.397Z,1.43
2018-09-13T17:58:57.584Z,1.60
2018-09-13T18:01:25.746Z,1.70
2018-09-13T18:03:53.932Z,1.63
2018-09-13T18:06:22.561Z,1.80
2018-09-13T18:08:50.742Z,1.43
2018-09-13T18:11:18.922Z,1.30
2018-09-13T18:13:47.218Z,1.30
2018-09-13T18:16:15.399Z,1.40
2018-09-13T18:18:44.521Z,1.10
2018-09-13T18:21:12.680Z,1.10
2018-09-13T18:23:41.125Z,1.27
2018-09-13T18:26:09.249Z,1.50
2018-09-13T18:28:37.415Z,1.20
2018-09-13T18:31:05.633Z,1.70
2018-09-13T18:33:33.937Z,1.20
2018-09-13T18:36:02.123Z,0.97
2018-09-13T18:38:30.302Z,0.80
2018-09-13T18:40:58.498Z,1.10
2018-09-13T18:43:26.764Z,0.90
2018-09-13T18:45:54.972Z,1.10
2018-09-13T18:48:23.939Z,1.00
2018-09-13T18:50:52.142Z,0.80
2018-09-13T18:53:20.320Z,0.90
2018-09-13T18:55:48.517Z,1.03
2018-09-13T18:58:16.705Z,1.07
2018-09-13T19:00:44.945Z,1.00
2018-09-13T19:03:13.210Z,0.80
2018-09-13T19:05:41.414Z,0.80
2018-09-13T19:08:09.686Z,1.10
2018-09-13T19:10:37.842Z,1.13
2018-09-13T19:13:06.278Z,1.07
2018-09-13T19:15:34.502Z,0.90
2018-09-13T19:18:02.641Z,0.90
2018-09-13T19:20:30.821Z,0.83
2018-09-13T19:23:00.272Z,0.80
2018-09-13T19:25:28.541Z,1.13
2018-09-13T19:27:56.859Z,1.13
2018-09-13T19:30:25.038Z,1.20
2018-09-13T19:32:53.238Z,1.20
2018-09-13T19:35:21.617Z,1.83
2018-09-13T19:37:49.775Z,2.10
2018-09-13T19:40:17.957Z,0.90
2018-09-13T19:42:46.695Z,1.23
2018-09-13T19:45:14.885Z,1.40
2018-09-13T19:47:43.047Z,1.47
2018-09-13T19:50:11.270Z,1.40
2018-09-13T19:52:39.440Z,1.53
2018-09-13T19:55:07.836Z,2.63
2018-09-13T19:57:35.994Z,1.73
2018-09-13T20:00:04.285Z,1.77
2018-09-13T20:02:32.458Z,2.40
2018-09-13T20:05:00.770Z,1.73
2018-09-13T20:07:28.886Z,1.90
2018-09-13T20:09:57.041Z,1.70
2018-09-13T20:12:25.450Z,1.90
2018-09-13T20:14:53.888Z,2.10
2018-09-13T20:17:22.142Z,2.40
2018-09-13T20:19:50.320Z,2.53
2018-09-13T20:22:18.513Z,2.67
2018-09-13T20:24:46.696Z,2.30
2018-09-13T20:27:14.940Z,1.70
2018-09-13T20:29:43.129Z,1.90
2018-09-13T20:32:11.563Z,2.17
2018-09-13T20:34:39.729Z,2.07
2018-09-13T20:37:07.901Z,2.00
2018-09-13T20:39:36.056Z,1.73
2018-09-13T20:42:04.240Z,2.13
2018-09-13T20:44:32.399Z,1.90
2018-09-13T20:47:00.586Z,2.50
2018-09-13T20:49:28.777Z,2.57
2018-09-13T20:51:57.108Z,3.40
2018-09-13T20:54:25.268Z,2.73
2018-09-13T20:56:53.448Z,2.57
2018-09-13T20:59:21.612Z,2.37
2018-09-13T21:01:49.795Z,2.63
2018-09-13T21:04:17.961Z,2.77
2018-09-13T21:06:46.169Z,2.60
2018-09-13T21:09:14.341Z,2.73
2018-09-13T21:11:42.523Z,3.47
2018-09-13T21:14:10.699Z,2.43
2018-09-13T21:16:38.881Z,2.67
2018-09-13T21:19:07.133Z,2.40
2018-09-13T21:21:35.318Z,3.50
2018-09-13T21:24:04.327Z,3.90
2018-09-13T21:26:32.459Z,3.20
2018-09-13T21:29:00.660Z,4.50
2018-09-13T21:31:28.816Z,3.00
2018-09-13T21:33:57.012Z,3.40
2018-09-13T21:36:25.209Z,4.33
2018-09-13T21:38:53.401Z,3.60
2018-09-13T21:41:21.559Z,2.80
2018-09-13T21:43:50.006Z,3.00
2018-09-13T21:46:18.170Z,5.63
2018-09-13T21:48:46.369Z,4.17
2018-09-13T21:51:14.581Z,2.60
2018-09-13T21:53:42.769Z,2.87
2018-09-13T21:56:10.943Z,3.23
2018-09-13T21:58:39.305Z,3.40
2018-09-13T22:01:07.690Z,3.10
2018-09-13T22:03:35.869Z,5.20
2018-09-13T22:06:04.172Z,4.87
2018-09-13T22:08:32.359Z,3.63
2018-09-13T22:11:00.513Z,3.33
2018-09-13T22:13:31.040Z,2.77
2018-09-13T22:15:59.518Z,3.80
2018-09-13T22:18:27.719Z,3.23
2018-09-13T22:20:55.990Z,3.40
2018-09-13T22:23:24.196Z,3.17
2018-09-13T22:25:52.393Z,3.33
2018-09-13T22:28:20.587Z,3.10
2018-09-13T22:30:48.732Z,3.27
2018-09-13T22:33:17.421Z,3.13
2018-09-13T22:35:45.629Z,3.13
2018-09-13T22:38:13.813Z,2.33
2018-09-13T22:40:41.971Z,2.90
2018-09-13T22:43:10.145Z,3.90
2018-09-13T22:45:38.432Z,3.20
2018-09-13T22:48:06.369Z,3.10
2018-09-13T22:50:34.541Z,3.20
2018-09-13T22:53:02.727Z,3.30
2018-09-13T22:55:30.879Z,3.50
2018-09-13T22:57:59.049Z,3.47
2018-09-13T23:00:27.220Z,2.53
2018-09-13T23:02:55.378Z,2.40
2018-09-13T23:05:23.583Z,3.00
2018-09-13T23:07:51.705Z,3.50
2018-09-13T23:10:19.888Z,3.37
2018-09-13T23:12:48.880Z,2.67
2018-09-13T23:15:17.060Z,2.50
2018-09-13T23:17:45.225Z,3.83
2018-09-13T23:20:13.700Z,2.90
2018-09-13T23:22:41.873Z,2.30
2018-09-13T23:25:10.046Z,2.40
2018-09-13T23:27:38.264Z,2.20
2018-09-13T23:30:06.822Z,2.10
2018-09-13T23:32:34.981Z,3.40
2018-09-13T23:35:03.156Z,3.40
2018-09-13T23:37:31.320Z,3.33
2018-09-13T23:39:59.719Z,2.87
2018-09-13T23:42:27.676Z,3.83
2018-09-13T23:44:55.857Z,6.57
2018-09-13T23:47:24.097Z,6.27
2018-09-13T23:49:52.305Z,4.67
2018-09-13T23:52:20.462Z,5.23
2018-09-13T23:54:48.638Z,4.23
2018-09-13T23:57:16.804Z,6.83
2018-09-13T23:59:44.979Z,5.40
